Time;durP1;ratioP1;P1;durP2;ratioP2;P2;SDS_P1;SDS_P2;PMS_P1;PMS_P2;Temp;Humidity;BMP_temperature;BMP_pressure;BME280_temperature;BME280_humidity;BME280_pressure;Samples;Min_cycle;Max_cycle;Signal;HPM_P1;HPM_P2
2023/06/23 00:00:23;;;;;;;;;;;18.60;99.90;;;;;;5055558;28;20020;-46
2023/06/23 00:02:49;;;;;;;;;;;18.50;99.90;;;;;;5055272;28;20382;-47
2023/06/23 00:05:14;;;;;;;;;;;18.50;99.90;;;;;;5055266;28;19920;-47
2023/06/23 00:07:40;;;;;;;;;;;18.60;99.90;;;;;;5055024;28;20314;-47
2023/06/23 00:10:06;;;;;;;;;;;18.50;99.90;;;;;;5055140;28;19921;-48
2023/06/23 00:12:35;;;;;;;;;;;18.50;99.90;;;;;;5055231;28;19920;-47
2023/06/23 00:15:02;;;;;;;;;;;18.50;99.90;;;;;;5055453;28;19960;-47
2023/06/23 00:17:27;;;;;;;;;;;18.50;99.90;;;;;;5037610;28;20383;-47
2023/06/23 00:19:53;;;;;;;;;;;18.50;99.90;;;;;;5055020;28;19974;-47
2023/06/23 00:22:18;;;;;;;;;;;18.50;99.90;;;;;;5054931;28;19920;-47
2023/06/23 00:24:44;;;;;;;;;;;18.50;99.90;;;;;;5037459;28;19921;-47
2023/06/23 00:27:10;;;;;;;;;;;18.50;99.90;;;;;;5054972;28;19932;-47
2023/06/23 00:29:35;;;;;;;;;;;18.50;99.90;;;;;;5054782;28;19921;-47
2023/06/23 00:32:02;;;;;;;;;;;18.50;99.90;;;;;;5054779;28;19978;-47
2023/06/23 00:34:27;;;;;;;;;;;18.50;99.90;;;;;;5054728;28;19921;-47
2023/06/23 00:36:53;;;;;;;;;;;18.50;99.90;;;;;;5054590;28;19927;-47
2023/06/23 00:39:18;;;;;;;;;;;18.40;99.90;;;;;;5054818;28;19927;-47
2023/06/23 00:41:44;;;;;;;;;;;18.40;99.90;;;;;;5054701;28;19921;-47
2023/06/23 00:44:10;;;;;;;;;;;18.50;99.90;;;;;;5054669;28;19979;-48
2023/06/23 00:46:36;;;;;;;;;;;18.50;99.90;;;;;;5036564;28;19921;-48
2023/06/23 00:49:02;;;;;;;;;;;18.40;99.90;;;;;;5053965;28;20397;-47
2023/06/23 00:51:27;;;;;;;;;;;18.40;99.90;;;;;;5036440;28;20359;-47
2023/06/23 00:53:54;;;;;;;;;;;18.40;99.90;;;;;;5054601;28;19928;-47
2023/06/23 00:56:22;;;;;;;;;;;18.40;99.90;;;;;;5054176;28;19994;-47
2023/06/23 00:58:48;;;;;;;;;;;18.30;99.90;;;;;;5054352;28;19928;-47
2023/06/23 01:01:14;;;;;;;;;;;18.30;99.90;;;;;;5054512;28;19920;-47
2023/06/23 01:03:41;;;;;;;;;;;18.30;99.90;;;;;;5054391;28;20363;-47
2023/06/23 01:06:17;;;;;;;;;;;18.30;99.90;;;;;;5054271;28;19921;-47
2023/06/23 01:08:48;;;;;;;;;;;18.30;99.90;;;;;;5054504;28;19950;-47
2023/06/23 01:11:18;;;;;;;;;;;18.30;99.90;;;;;;5036767;28;20325;-47
2023/06/23 01:13:46;;;;;;;;;;;18.30;99.90;;;;;;5054213;28;20275;-47
2023/06/23 01:16:38;;;;;;;;;;;18.30;99.90;;;;;;5020096;28;19920;-48
2023/06/23 01:19:14;;;;;;;;;;;18.30;99.90;;;;;;5050067;28;20003;-48
2023/06/23 01:21:52;;;;;;;;;;;18.30;99.90;;;;;;5054424;28;19920;-47
2023/06/23 01:24:26;;;;;;;;;;;18.20;99.90;;;;;;5020332;28;19936;-48
2023/06/23 01:27:10;;;;;;;;;;;18.30;99.90;;;;;;5036257;28;20426;-48
2023/06/23 01:29:36;;;;;;;;;;;18.20;99.90;;;;;;5053884;28;19920;-48
2023/06/23 01:32:02;;;;;;;;;;;18.30;99.90;;;;;;5053920;28;19928;-49
2023/06/23 01:34:38;;;;;;;;;;;18.20;99.90;;;;;;5054035;28;19920;-48
2023/06/23 01:37:07;;;;;;;;;;;18.30;99.90;;;;;;5054063;28;19925;-47
2023/06/23 01:39:36;;;;;;;;;;;18.20;99.90;;;;;;5053618;28;19963;-47
2023/06/23 01:42:20;;;;;;;;;;;18.20;99.90;;;;;;5053858;28;19943;-48
2023/06/23 01:44:50;;;;;;;;;;;18.20;99.90;;;;;;5053926;28;19921;-47
2023/06/23 01:47:18;;;;;;;;;;;18.20;99.90;;;;;;5053909;28;19920;-48
2023/06/23 01:49:45;;;;;;;;;;;18.10;99.90;;;;;;5053665;28;19924;-47
2023/06/23 01:52:11;;;;;;;;;;;18.20;99.90;;;;;;5036084;28;19943;-48
2023/06/23 01:54:38;;;;;;;;;;;18.20;99.90;;;;;;5053824;28;19926;-47
2023/06/23 01:57:04;;;;;;;;;;;18.20;99.90;;;;;;5053684;28;20425;-48
2023/06/23 01:59:31;;;;;;;;;;;18.20;99.90;;;;;;5056029;28;19977;-47
2023/06/23 02:01:58;;;;;;;;;;;18.20;99.90;;;;;;5057561;28;19963;-47
2023/06/23 02:04:24;;;;;;;;;;;18.20;99.90;;;;;;5057485;28;19971;-48
2023/06/23 02:06:50;;;;;;;;;;;18.20;99.90;;;;;;5057351;28;19976;-48
2023/06/23 02:09:18;;;;;;;;;;;18.20;99.90;;;;;;5057529;28;19972;-48
2023/06/23 02:11:44;;;;;;;;;;;18.20;99.90;;;;;;5057432;28;19921;-48
2023/06/23 02:14:11;;;;;;;;;;;18.20;99.90;;;;;;5057489;28;19928;-48
2023/06/23 02:16:37;;;;;;;;;;;18.20;99.90;;;;;;5057303;28;19921;-48
2023/06/23 02:19:03;;;;;;;;;;;18.20;99.90;;;;;;5057254;28;19921;-48
2023/06/23 02:21:29;;;;;;;;;;;18.20;99.90;;;;;;5057319;28;19921;-48
2023/06/23 02:23:55;;;;;;;;;;;18.20;99.90;;;;;;5057506;28;19928;-48
2023/06/23 02:26:22;;;;;;;;;;;18.20;99.90;;;;;;5057286;28;19926;-47
2023/06/23 02:28:49;;;;;;;;;;;18.20;99.90;;;;;;5039447;28;19921;-48
2023/06/23 02:31:22;;;;;;;;;;;18.20;99.90;;;;;;5057042;28;19920;-49
2023/06/23 02:33:48;;;;;;;;;;;18.30;99.90;;;;;;5057159;28;19925;-48
2023/06/23 02:36:17;;;;;;;;;;;18.20;99.90;;;;;;5039614;28;19920;-48
2023/06/23 02:38:43;;;;;;;;;;;18.30;99.90;;;;;;5056895;28;20303;-48
2023/06/23 02:41:10;;;;;;;;;;;18.30;99.90;;;;;;5056880;28;20282;-48
2023/06/23 02:43:41;;;;;;;;;;;18.30;99.90;;;;;;5039247;28;20291;-49
2023/06/23 02:46:09;;;;;;;;;;;18.30;99.90;;;;;;5056732;28;19936;-48
2023/06/23 02:48:36;;;;;;;;;;;18.30;99.90;;;;;;5056896;28;19920;-48
2023/06/23 02:51:03;;;;;;;;;;;18.30;99.90;;;;;;5056721;28;20019;-48
2023/06/23 02:53:30;;;;;;;;;;;18.30;99.90;;;;;;5056882;28;19920;-47
2023/06/23 02:56:01;;;;;;;;;;;18.30;99.90;;;;;;5056514;28;20498;-48
2023/06/23 02:58:28;;;;;;;;;;;18.30;99.90;;;;;;5056663;28;19944;-48
2023/06/23 03:00:56;;;;;;;;;;;18.30;99.90;;;;;;5056473;28;20319;-48
2023/06/23 03:03:21;;;;;;;;;;;18.30;99.90;;;;;;5056729;28;19927;-49
2023/06/23 03:05:47;;;;;;;;;;;18.20;99.90;;;;;;5039028;28;19921;-48
2023/06/23 03:08:13;;;;;;;;;;;18.30;99.90;;;;;;5056534;28;19921;-48
2023/06/23 03:10:38;;;;;;;;;;;18.30;99.90;;;;;;5055457;28;20252;-49
2023/06/23 03:13:04;;;;;;;;;;;18.30;99.90;;;;;;5056212;28;19943;-48
2023/06/23 03:15:29;;;;;;;;;;;18.30;99.90;;;;;;5056078;28;19927;-48
2023/06/23 03:18:04;;;;;;;;;;;18.30;99.90;;;;;;5056389;28;20012;-47
2023/06/23 03:20:32;;;;;;;;;;;18.20;99.90;;;;;;5056424;28;20368;-48
2023/06/23 03:23:00;;;;;;;;;;;18.20;99.90;;;;;;5056552;28;20347;-48
2023/06/23 03:25:27;;;;;;;;;;;18.20;99.90;;;;;;5056267;28;19974;-48
2023/06/23 03:27:54;;;;;;;;;;;18.20;99.90;;;;;;5055936;28;19921;-48
2023/06/23 03:30:24;;;;;;;;;;;18.20;99.90;;;;;;5056041;28;19920;-48
2023/06/23 03:32:51;;;;;;;;;;;18.20;99.90;;;;;;5039013;28;19944;-48
2023/06/23 03:35:22;;;;;;;;;;;18.30;99.90;;;;;;5056005;28;20058;-48
2023/06/23 03:37:49;;;;;;;;;;;18.30;99.90;;;;;;5055944;28;19927;-48
2023/06/23 03:40:16;;;;;;;;;;;18.30;99.90;;;;;;5055803;28;19928;-48
2023/06/23 03:42:44;;;;;;;;;;;18.20;99.90;;;;;;5055747;28;19920;-48
2023/06/23 03:45:11;;;;;;;;;;;18.20;99.90;;;;;;5055891;28;19928;-48
2023/06/23 03:47:38;;;;;;;;;;;18.20;99.90;;;;;;5055751;28;19967;-48
2023/06/23 03:50:08;;;;;;;;;;;18.10;99.90;;;;;;5037881;28;19926;-48
2023/06/23 03:52:34;;;;;;;;;;;18.10;99.90;;;;;;5055634;28;19920;-51
2023/06/23 03:55:01;;;;;;;;;;;18.10;99.90;;;;;;5037830;28;19954;-50
2023/06/23 03:57:29;;;;;;;;;;;18.00;99.90;;;;;;5055537;28;20340;-48
2023/06/23 03:59:56;;;;;;;;;;;18.00;99.90;;;;;;5055570;28;19921;-50
2023/06/23 04:02:23;;;;;;;;;;;18.00;99.90;;;;;;5055490;28;19982;-48
2023/06/23 04:04:50;;;;;;;;;;;18.00;99.90;;;;;;5037896;28;19994;-48
2023/06/23 04:07:17;;;;;;;;;;;18.00;99.90;;;;;;5055395;28;19976;-47
2023/06/23 04:09:45;;;;;;;;;;;18.00;99.90;;;;;;5054984;28;19920;-47
2023/06/23 04:12:12;;;;;;;;;;;18.00;99.90;;;;;;5055247;28;20019;-48
2023/06/23 04:14:38;;;;;;;;;;;17.90;99.90;;;;;;5055243;28;20011;-47
2023/06/23 04:17:06;;;;;;;;;;;17.90;99.90;;;;;;5055314;28;19963;-48
2023/06/23 04:19:33;;;;;;;;;;;17.90;99.90;;;;;;5055102;28;20019;-48
2023/06/23 04:22:00;;;;;;;;;;;17.90;99.90;;;;;;5037443;28;19928;-47
2023/06/23 04:24:25;;;;;;;;;;;17.90;99.90;;;;;;5055056;28;19921;-47
2023/06/23 04:26:53;;;;;;;;;;;17.90;99.90;;;;;;5037426;28;19943;-48
2023/06/23 04:29:20;;;;;;;;;;;17.90;99.90;;;;;;5054893;28;19921;-48
2023/06/23 04:31:49;;;;;;;;;;;17.90;99.90;;;;;;5054815;28;19921;-47
2023/06/23 04:34:14;;;;;;;;;;;18.00;99.90;;;;;;5054770;28;19920;-48
2023/06/23 04:36:44;;;;;;;;;;;17.90;99.90;;;;;;5054486;28;20023;-48
2023/06/23 04:39:27;;;;;;;;;;;17.90;99.90;;;;;;5054831;28;19921;-48
2023/06/23 04:41:56;;;;;;;;;;;17.90;99.90;;;;;;5054782;28;19925;-48
2023/06/23 04:44:23;;;;;;;;;;;17.90;99.90;;;;;;5054877;28;19921;-47
2023/06/23 04:46:51;;;;;;;;;;;17.90;99.90;;;;;;5054641;28;19921;-48
2023/06/23 04:49:18;;;;;;;;;;;17.90;99.90;;;;;;5054401;28;19920;-48
2023/06/23 04:51:46;;;;;;;;;;;17.90;99.90;;;;;;5054306;28;20450;-47
2023/06/23 04:54:21;;;;;;;;;;;17.90;99.90;;;;;;5054564;28;19921;-47
2023/06/23 04:56:48;;;;;;;;;;;17.90;99.90;;;;;;5036961;28;19920;-47
2023/06/23 04:59:15;;;;;;;;;;;17.90;99.90;;;;;;5054355;28;19982;-48
2023/06/23 05:01:41;;;;;;;;;;;17.90;99.90;;;;;;5036630;28;19947;-49
2023/06/23 05:04:08;;;;;;;;;;;17.90;99.90;;;;;;5054044;28;20387;-48
2023/06/23 05:06:36;;;;;;;;;;;17.90;99.90;;;;;;5037285;28;19921;-48
2023/06/23 05:09:03;;;;;;;;;;;17.90;99.90;;;;;;5054301;28;19979;-47
2023/06/23 05:11:29;;;;;;;;;;;17.80;99.90;;;;;;5036292;28;19920;-48
2023/06/23 05:13:55;;;;;;;;;;;17.80;99.90;;;;;;5054158;28;19966;-47
2023/06/23 05:16:21;;;;;;;;;;;17.90;99.90;;;;;;5054085;28;19931;-48
2023/06/23 05:18:48;;;;;;;;;;;17.90;99.90;;;;;;5037325;28;20318;-47
2023/06/23 05:21:15;;;;;;;;;;;17.80;99.90;;;;;;5054166;28;19968;-46
2023/06/23 05:23:42;;;;;;;;;;;17.80;99.90;;;;;;5036739;28;20283;-49
2023/06/23 05:26:09;;;;;;;;;;;17.80;99.90;;;;;;5054011;28;20279;-48
2023/06/23 05:28:36;;;;;;;;;;;17.80;99.90;;;;;;5054022;28;19928;-49
2023/06/23 05:31:02;;;;;;;;;;;17.90;99.90;;;;;;5053595;28;19924;-50
2023/06/23 05:33:28;;;;;;;;;;;17.90;99.90;;;;;;5053399;28;19920;-48
2023/06/23 05:35:54;;;;;;;;;;;17.90;99.90;;;;;;5053972;28;20367;-50
2023/06/23 05:38:21;;;;;;;;;;;17.90;99.90;;;;;;5036512;28;19967;-48
2023/06/23 05:40:47;;;;;;;;;;;17.90;99.90;;;;;;5036349;28;19974;-49
2023/06/23 05:43:12;;;;;;;;;;;17.80;99.90;;;;;;5053776;28;19921;-49
2023/06/23 05:45:38;;;;;;;;;;;17.80;99.90;;;;;;5053671;28;19927;-50
2023/06/23 05:48:06;;;;;;;;;;;17.80;99.90;;;;;;5019943;28;19921;-52
2023/06/23 05:50:33;;;;;;;;;;;17.80;99.90;;;;;;5053906;28;19928;-49
2023/06/23 05:53:08;;;;;;;;;;;17.80;99.90;;;;;;5053730;28;19921;-49
2023/06/23 05:55:37;;;;;;;;;;;17.90;99.90;;;;;;5053699;28;19968;-49
2023/06/23 05:58:06;;;;;;;;;;;17.90;99.90;;;;;;5053343;28;19974;-48
2023/06/23 06:00:34;;;;;;;;;;;17.90;99.90;;;;;;5053763;28;19920;-47
2023/06/23 06:03:02;;;;;;;;;;;17.90;99.90;;;;;;5053672;28;20360;-47
2023/06/23 06:05:28;;;;;;;;;;;17.90;99.90;;;;;;5053546;28;20007;-48
2023/06/23 06:07:55;;;;;;;;;;;18.00;99.90;;;;;;5036063;28;19920;-47
2023/06/23 06:10:22;;;;;;;;;;;18.00;99.90;;;;;;5053388;28;20365;-48
2023/06/23 06:12:49;;;;;;;;;;;18.10;99.90;;;;;;5053617;28;19921;-47
2023/06/23 06:15:16;;;;;;;;;;;18.20;99.90;;;;;;5053621;28;20385;-49
2023/06/23 06:17:41;;;;;;;;;;;18.30;99.90;;;;;;5053689;28;19927;-51
2023/06/23 06:20:08;;;;;;;;;;;18.30;99.90;;;;;;5053431;28;19921;-48
2023/06/23 06:22:36;;;;;;;;;;;18.40;99.90;;;;;;5036039;28;19921;-48
2023/06/23 06:25:02;;;;;;;;;;;18.60;99.90;;;;;;5053427;28;19928;-49
2023/06/23 06:27:29;;;;;;;;;;;18.60;99.90;;;;;;5053451;28;19921;-48
2023/06/23 06:29:55;;;;;;;;;;;18.70;99.90;;;;;;5053444;28;20318;-48
2023/06/23 06:32:21;;;;;;;;;;;18.80;99.90;;;;;;5053419;28;20284;-48
2023/06/23 06:34:47;;;;;;;;;;;18.80;99.90;;;;;;5053413;28;19927;-47
2023/06/23 06:37:13;;;;;;;;;;;18.90;99.90;;;;;;5053589;28;19920;-47
2023/06/23 06:39:40;;;;;;;;;;;18.90;99.90;;;;;;5053246;28;20325;-49
2023/06/23 06:42:06;;;;;;;;;;;19.00;99.90;;;;;;5053388;28;19924;-48
2023/06/23 06:44:32;;;;;;;;;;;19.10;99.90;;;;;;5053696;28;19927;-47
2023/06/23 06:46:58;;;;;;;;;;;19.20;99.90;;;;;;5038372;28;19921;-47
2023/06/23 06:49:25;;;;;;;;;;;19.40;99.90;;;;;;5056762;28;19932;-48
2023/06/23 06:51:51;;;;;;;;;;;19.60;99.90;;;;;;5056667;28;19924;-48
2023/06/23 06:54:17;;;;;;;;;;;19.90;99.90;;;;;;5056653;28;20397;-47
2023/06/23 06:56:43;;;;;;;;;;;20.00;99.90;;;;;;5056465;28;20007;-48
2023/06/23 06:59:09;;;;;;;;;;;20.00;99.90;;;;;;5039285;28;20374;-48
2023/06/23 07:01:35;;;;;;;;;;;20.10;99.90;;;;;;5056652;28;19968;-48
2023/06/23 07:04:02;;;;;;;;;;;20.20;99.90;;;;;;5056655;28;20333;-47
2023/06/23 07:06:27;;;;;;;;;;;20.20;99.90;;;;;;5056749;28;19920;-47
2023/06/23 07:08:53;;;;;;;;;;;20.30;99.90;;;;;;5056245;28;19943;-47
2023/06/23 07:11:19;;;;;;;;;;;20.40;99.90;;;;;;5038696;28;20260;-48
2023/06/23 07:13:45;;;;;;;;;;;20.60;99.90;;;;;;5039001;28;19928;-48
2023/06/23 07:16:10;;;;;;;;;;;20.90;99.90;;;;;;5056334;28;19929;-47
2023/06/23 07:18:36;;;;;;;;;;;21.00;99.90;;;;;;5056347;28;19921;-48
2023/06/23 07:21:04;;;;;;;;;;;21.10;99.90;;;;;;5038529;28;20283;-48
2023/06/23 07:23:30;;;;;;;;;;;21.10;99.90;;;;;;5055980;28;19921;-48
2023/06/23 07:25:55;;;;;;;;;;;21.20;99.90;;;;;;5056210;28;19921;-47
2023/06/23 07:28:21;;;;;;;;;;;21.60;99.90;;;;;;5056125;28;19943;-49
2023/06/23 07:30:47;;;;;;;;;;;21.90;99.90;;;;;;5056012;28;19974;-50
2023/06/23 07:33:12;;;;;;;;;;;22.00;99.90;;;;;;5056023;28;20394;-48
2023/06/23 07:35:38;;;;;;;;;;;21.90;99.90;;;;;;5055818;28;20015;-48
2023/06/23 07:38:04;;;;;;;;;;;21.80;99.90;;;;;;5055883;28;19921;-48
2023/06/23 07:40:29;;;;;;;;;;;21.60;99.90;;;;;;5055910;28;20367;-48
2023/06/23 07:42:55;;;;;;;;;;;21.50;99.90;;;;;;5055859;28;19921;-48
2023/06/23 07:45:20;;;;;;;;;;;21.50;99.90;;;;;;5055790;28;19932;-48
2023/06/23 07:47:46;;;;;;;;;;;21.40;99.90;;;;;;5038119;28;19921;-49
2023/06/23 07:50:12;;;;;;;;;;;21.40;99.90;;;;;;5055567;28;19921;-48
2023/06/23 07:52:37;;;;;;;;;;;21.40;99.90;;;;;;5055456;28;20009;-49
2023/06/23 07:55:03;;;;;;;;;;;21.30;99.90;;;;;;5055706;28;19924;-48
2023/06/23 07:57:28;;;;;;;;;;;21.30;99.90;;;;;;5055064;28;19960;-49
2023/06/23 07:59:54;;;;;;;;;;;21.30;99.90;;;;;;5055553;28;19921;-49
2023/06/23 08:02:19;;;;;;;;;;;21.30;99.90;;;;;;5038001;28;19920;-47
2023/06/23 08:04:45;;;;;;;;;;;21.30;99.90;;;;;;5055161;28;19974;-47
2023/06/23 08:07:10;;;;;;;;;;;21.30;99.90;;;;;;5037319;28;19924;-48
2023/06/23 08:09:36;;;;;;;;;;;21.30;99.90;;;;;;5037803;28;20387;-48
2023/06/23 08:12:02;;;;;;;;;;;21.30;99.90;;;;;;5055199;28;19920;-47
2023/06/23 08:14:27;;;;;;;;;;;21.30;99.90;;;;;;5055559;28;19921;-49
2023/06/23 08:16:53;;;;;;;;;;;21.30;99.90;;;;;;5055203;28;19921;-48
2023/06/23 08:19:21;;;;;;;;;;;21.20;99.90;;;;;;5054883;28;19928;-49
2023/06/23 08:21:51;;;;;;;;;;;21.20;99.90;;;;;;5055065;28;19927;-48
2023/06/23 08:24:17;;;;;;;;;;;21.20;99.90;;;;;;5055106;28;20350;-49
2023/06/23 08:26:43;;;;;;;;;;;21.30;99.90;;;;;;5054990;28;19928;-49
2023/06/23 08:29:09;;;;;;;;;;;21.30;99.90;;;;;;5055174;28;19924;-49
2023/06/23 08:31:35;;;;;;;;;;;21.30;99.90;;;;;;5054811;28;19928;-48
2023/06/23 08:34:01;;;;;;;;;;;21.30;99.90;;;;;;5054736;28;19925;-49
2023/06/23 08:36:26;;;;;;;;;;;21.30;99.90;;;;;;5037078;28;19929;-48
2023/06/23 08:38:52;;;;;;;;;;;21.30;99.90;;;;;;5055137;28;19921;-48
2023/06/23 08:41:20;;;;;;;;;;;21.30;99.90;;;;;;5037015;28;20015;-49
2023/06/23 08:43:47;;;;;;;;;;;21.30;99.90;;;;;;5054757;28;20003;-48
2023/06/23 08:46:13;;;;;;;;;;;21.30;99.90;;;;;;5054862;28;19927;-49
2023/06/23 08:48:42;;;;;;;;;;;21.40;99.90;;;;;;5054431;28;20425;-52
2023/06/23 08:51:08;;;;;;;;;;;21.40;99.90;;;;;;5054294;28;19982;-48
2023/06/23 08:53:34;;;;;;;;;;;21.40;99.90;;;;;;5037050;28;20418;-49
2023/06/23 08:55:59;;;;;;;;;;;21.50;99.90;;;;;;5054526;28;19931;-51
2023/06/23 08:58:25;;;;;;;;;;;21.50;99.90;;;;;;5054794;28;19921;-47
2023/06/23 09:00:51;;;;;;;;;;;21.50;99.90;;;;;;5036511;28;19924;-48
2023/06/23 09:03:18;;;;;;;;;;;21.50;99.90;;;;;;5054292;28;20346;-48
2023/06/23 09:05:43;;;;;;;;;;;21.50;99.90;;;;;;5054162;28;19986;-49
2023/06/23 09:08:09;;;;;;;;;;;21.50;99.90;;;;;;5053454;28;19925;-49
2023/06/23 09:10:35;;;;;;;;;;;21.50;99.90;;;;;;5054268;28;19966;-48
2023/06/23 09:13:07;;;;;;;;;;;21.50;99.90;;;;;;5054229;28;19928;-48
2023/06/23 09:15:33;;;;;;;;;;;21.50;99.90;;;;;;5054180;28;19921;-47
2023/06/23 09:18:00;;;;;;;;;;;21.60;99.90;;;;;;5054109;28;19921;-48
2023/06/23 09:20:26;;;;;;;;;;;21.60;99.90;;;;;;5053971;28;19928;-47
2023/06/23 09:22:53;;;;;;;;;;;21.60;99.90;;;;;;5054077;28;19920;-48
2023/06/23 09:25:37;;;;;;;;;;;21.60;99.90;;;;;;5053957;28;20352;-48
2023/06/23 09:28:03;;;;;;;;;;;21.60;99.90;;;;;;5053906;28;19943;-48
2023/06/23 09:30:33;;;;;;;;;;;21.60;99.90;;;;;;5036191;28;20023;-49
2023/06/23 09:32:59;;;;;;;;;;;21.60;99.90;;;;;;5053767;28;19921;-47
2023/06/23 09:35:24;;;;;;;;;;;21.70;99.90;;;;;;5053688;28;20283;-46
2023/06/23 09:37:50;;;;;;;;;;;21.70;99.90;;;;;;5054434;28;19924;-49
2023/06/23 09:40:23;;;;;;;;;;;21.70;99.90;;;;;;5053955;28;20425;-48
2023/06/23 09:42:49;;;;;;;;;;;21.70;99.90;;;;;;5054011;28;19928;-48
2023/06/23 09:45:17;;;;;;;;;;;21.70;99.90;;;;;;5053847;28;19921;-47
2023/06/23 09:47:43;;;;;;;;;;;21.80;99.90;;;;;;5053920;28;19935;-48
2023/06/23 09:50:15;;;;;;;;;;;21.80;99.90;;;;;;5036411;28;19920;-48
2023/06/23 09:52:40;;;;;;;;;;;21.80;99.90;;;;;;5053796;28;19925;-48
2023/06/23 09:55:07;;;;;;;;;;;21.80;99.90;;;;;;5053741;28;19921;-48
2023/06/23 09:57:32;;;;;;;;;;;21.80;99.90;;;;;;5054017;28;19921;-48
2023/06/23 09:59:58;;;;;;;;;;;21.80;99.90;;;;;;5053554;28;19920;-49
2023/06/23 10:02:25;;;;;;;;;;;21.80;99.90;;;;;;5036257;28;19967;-48
2023/06/23 10:04:57;;;;;;;;;;;21.90;99.90;;;;;;5019356;28;20390;-49
2023/06/23 10:07:23;;;;;;;;;;;21.90;99.90;;;;;;5053614;28;19921;-50
2023/06/23 10:09:53;;;;;;;;;;;22.00;99.90;;;;;;5053365;28;19921;-48
2023/06/23 10:12:23;;;;;;;;;;;22.00;99.90;;;;;;5053458;28;19968;-49
2023/06/23 10:14:49;;;;;;;;;;;22.10;99.90;;;;;;5053632;28;19921;-47
2023/06/23 10:17:14;;;;;;;;;;;22.10;99.90;;;;;;5053435;28;20291;-52
2023/06/23 10:19:40;;;;;;;;;;;22.20;99.90;;;;;;5054366;28;19924;-47
2023/06/23 10:22:07;;;;;;;;;;;22.30;99.90;;;;;;5057340;28;19928;-53
2023/06/23 10:24:34;;;;;;;;;;;22.40;99.90;;;;;;5057278;28;19942;-51
2023/06/23 10:27:00;;;;;;;;;;;22.50;99.90;;;;;;5057146;28;20025;-48
2023/06/23 10:29:27;;;;;;;;;;;22.60;99.90;;;;;;5057137;28;20416;-48
2023/06/23 10:31:56;;;;;;;;;;;22.70;99.90;;;;;;5057109;28;19963;-47
2023/06/23 10:34:22;;;;;;;;;;;22.80;99.90;;;;;;5056788;28;20291;-47
2023/06/23 10:36:48;;;;;;;;;;;22.80;99.90;;;;;;5056565;28;19921;-48
2023/06/23 10:39:14;;;;;;;;;;;22.80;99.90;;;;;;5039032;28;20367;-50
2023/06/23 10:41:43;;;;;;;;;;;22.90;99.90;;;;;;5056444;28;19931;-48
2023/06/23 10:44:08;;;;;;;;;;;23.00;99.90;;;;;;5056491;28;20015;-52
2023/06/23 10:46:35;;;;;;;;;;;23.10;99.90;;;;;;5056477;28;20023;-53
2023/06/23 10:49:03;;;;;;;;;;;23.20;99.90;;;;;;5056402;28;19924;-53
2023/06/23 10:51:30;;;;;;;;;;;23.30;99.90;;;;;;5056451;28;19968;-52
2023/06/23 10:53:58;;;;;;;;;;;23.40;99.90;;;;;;5056468;28;19921;-48
2023/06/23 10:56:34;;;;;;;;;;;23.50;99.90;;;;;;5056224;28;20004;-52
2023/06/23 10:58:59;;;;;;;;;;;23.60;99.90;;;;;;5056316;28;19964;-51
2023/06/23 11:01:26;;;;;;;;;;;23.70;99.90;;;;;;5056048;28;19971;-49
2023/06/23 11:03:56;;;;;;;;;;;23.80;99.90;;;;;;5038371;28;20345;-53
2023/06/23 11:06:25;;;;;;;;;;;23.80;99.90;;;;;;5056346;28;20364;-54
2023/06/23 11:08:51;;;;;;;;;;;23.90;99.90;;;;;;5055953;28;20446;-53
2023/06/23 11:11:17;;;;;;;;;;;23.80;99.90;;;;;;5056486;28;20015;-53
2023/06/23 11:13:47;;;;;;;;;;;23.80;99.90;;;;;;5056202;28;19921;-52
2023/06/23 11:16:14;;;;;;;;;;;23.70;99.90;;;;;;5056316;28;19920;-49
2023/06/23 11:18:51;;;;;;;;;;;23.80;99.90;;;;;;5055945;28;20359;-50
2023/06/23 11:21:37;;;;;;;;;;;23.90;99.90;;;;;;5055795;28;19920;-47
2023/06/23 11:24:19;;;;;;;;;;;24.00;99.90;;;;;;5055592;28;20427;-48
2023/06/23 11:26:52;;;;;;;;;;;24.10;99.90;;;;;;5056004;28;19920;-49
2023/06/23 11:29:18;;;;;;;;;;;24.20;99.90;;;;;;5055797;28;20367;-48
2023/06/23 11:32:06;;;;;;;;;;;24.40;99.90;;;;;;5054611;28;19921;-48
2023/06/23 11:34:50;;;;;;;;;;;24.40;99.90;;;;;;5056210;28;19927;-48
2023/06/23 11:37:16;;;;;;;;;;;24.50;99.90;;;;;;5055975;28;19921;-49
2023/06/23 11:39:42;;;;;;;;;;;24.70;99.90;;;;;;5055948;28;19920;-49
2023/06/23 11:42:07;;;;;;;;;;;24.80;99.90;;;;;;5055547;28;20011;-50
2023/06/23 11:44:33;;;;;;;;;;;24.80;99.90;;;;;;5055639;28;19921;-51
2023/06/23 11:46:59;;;;;;;;;;;24.90;99.90;;;;;;5037904;28;19920;-49
2023/06/23 11:49:24;;;;;;;;;;;24.90;99.90;;;;;;5055808;28;19971;-54
2023/06/23 11:51:50;;;;;;;;;;;24.90;99.90;;;;;;5037868;28;20398;-53
2023/06/23 11:54:16;;;;;;;;;;;25.00;99.90;;;;;;5055535;28;20015;-52
2023/06/23 11:56:42;;;;;;;;;;;25.00;99.90;;;;;;5055241;28;19937;-50
2023/06/23 11:59:09;;;;;;;;;;;25.10;99.90;;;;;;5056266;28;19928;-50
2023/06/23 12:01:34;;;;;;;;;;;25.20;99.90;;;;;;5055479;28;19927;-48
2023/06/23 12:04:00;;;;;;;;;;;25.30;99.90;;;;;;5055438;28;20295;-52
2023/06/23 12:06:27;;;;;;;;;;;25.30;99.90;;;;;;5037309;28;19921;-53
2023/06/23 12:08:53;;;;;;;;;;;25.40;99.90;;;;;;5055129;28;19920;-52
2023/06/23 12:11:21;;;;;;;;;;;25.50;99.90;;;;;;5055063;28;19921;-49
2023/06/23 12:13:48;;;;;;;;;;;25.50;99.90;;;;;;5055302;28;19921;-53
2023/06/23 12:16:14;;;;;;;;;;;25.50;99.90;;;;;;5055372;28;20256;-48
2023/06/23 12:18:46;;;;;;;;;;;25.50;99.30;;;;;;5055136;28;20371;-49
2023/06/23 12:21:14;;;;;;;;;;;25.50;95.60;;;;;;5055052;28;19921;-51
2023/06/23 12:23:40;;;;;;;;;;;25.50;96.70;;;;;;5055087;28;20010;-47
2023/06/23 12:26:06;;;;;;;;;;;25.50;98.50;;;;;;5054836;28;19921;-47
2023/06/23 12:28:32;;;;;;;;;;;25.60;98.80;;;;;;5055149;28;19928;-53
2023/06/23 12:30:58;;;;;;;;;;;25.60;96.20;;;;;;5054934;28;19920;-51
2023/06/23 12:33:25;;;;;;;;;;;25.60;98.10;;;;;;5054831;28;20007;-52
2023/06/23 12:36:03;;;;;;;;;;;25.70;97.10;;;;;;5037039;28;19968;-49
2023/06/23 12:38:29;;;;;;;;;;;25.70;97.00;;;;;;5054670;28;20371;-49
2023/06/23 12:40:55;;;;;;;;;;;25.80;96.70;;;;;;5054950;28;19990;-48
2023/06/23 12:43:21;;;;;;;;;;;25.80;96.70;;;;;;5054461;28;19924;-48
2023/06/23 12:45:48;;;;;;;;;;;25.80;97.10;;;;;;5054693;28;19920;-47
2023/06/23 12:48:13;;;;;;;;;;;25.90;96.70;;;;;;5054688;28;19966;-53
2023/06/23 12:50:42;;;;;;;;;;;25.90;97.50;;;;;;5054338;28;20287;-49
2023/06/23 12:53:08;;;;;;;;;;;26.00;96.70;;;;;;5054325;28;19924;-53
2023/06/23 12:55:34;;;;;;;;;;;26.10;96.80;;;;;;5054250;28;19920;-51
2023/06/23 12:57:59;;;;;;;;;;;26.00;96.00;;;;;;5036606;28;19920;-48
2023/06/23 13:00:25;;;;;;;;;;;26.00;95.90;;;;;;5054467;28;19921;-49
2023/06/23 13:02:52;;;;;;;;;;;26.00;95.60;;;;;;5054308;28;20406;-48
2023/06/23 13:05:18;;;;;;;;;;;26.00;96.00;;;;;;5054231;28;20299;-53
2023/06/23 13:07:44;;;;;;;;;;;26.00;96.80;;;;;;5054199;28;19936;-49
2023/06/23 13:10:10;;;;;;;;;;;26.00;96.50;;;;;;5036667;28;19925;-48
2023/06/23 13:12:37;;;;;;;;;;;26.00;96.00;;;;;;5054099;28;20444;-48
2023/06/23 13:15:03;;;;;;;;;;;26.00;95.30;;;;;;5054250;28;19921;-49
2023/06/23 13:17:29;;;;;;;;;;;25.90;95.80;;;;;;5054297;28;19921;-48
2023/06/23 13:19:55;;;;;;;;;;;25.80;96.20;;;;;;5036540;28;19983;-50
2023/06/23 13:22:20;;;;;;;;;;;25.70;95.10;;;;;;5036537;28;19951;-53
2023/06/23 13:24:46;;;;;;;;;;;25.80;95.30;;;;;;5054299;28;20253;-53
2023/06/23 13:27:11;;;;;;;;;;;25.80;94.10;;;;;;5054099;28;19920;-55
2023/06/23 13:29:37;;;;;;;;;;;25.80;93.20;;;;;;5053959;28;20317;-48
2023/06/23 13:32:04;;;;;;;;;;;25.80;92.80;;;;;;5054028;28;19982;-51
2023/06/23 13:34:29;;;;;;;;;;;25.80;90.70;;;;;;5053885;28;19921;-49
2023/06/23 13:36:55;;;;;;;;;;;25.70;88.50;;;;;;5053779;28;19921;-52
2023/06/23 13:39:21;;;;;;;;;;;25.60;89.10;;;;;;5053993;28;19920;-47
2023/06/23 13:41:46;;;;;;;;;;;25.60;89.00;;;;;;5053949;28;19921;-55
2023/06/23 13:44:13;;;;;;;;;;;25.50;91.40;;;;;;5054034;28;20386;-52
2023/06/23 13:46:38;;;;;;;;;;;25.50;87.70;;;;;;5053884;28;19983;-53
2023/06/23 13:49:04;;;;;;;;;;;25.50;84.00;;;;;;5053702;28;20363;-48
2023/06/23 13:51:30;;;;;;;;;;;25.50;83.20;;;;;;5052834;28;19921;-48
2023/06/23 13:53:55;;;;;;;;;;;25.50;82.20;;;;;;5054228;28;20034;-50
2023/06/23 13:56:21;;;;;;;;;;;25.50;78.70;;;;;;5057398;28;19920;-48
2023/06/23 13:58:46;;;;;;;;;;;25.50;82.20;;;;;;5057760;28;19990;-49
2023/06/23 14:01:12;;;;;;;;;;;25.50;79.10;;;;;;5057807;28;20011;-50
2023/06/23 14:03:37;;;;;;;;;;;25.50;79.60;;;;;;5057826;28;19920;-50
2023/06/23 14:06:03;;;;;;;;;;;25.50;83.70;;;;;;5057640;28;19920;-47
2023/06/23 14:08:30;;;;;;;;;;;25.60;80.00;;;;;;5057370;28;19921;-49
2023/06/23 14:10:56;;;;;;;;;;;25.50;79.50;;;;;;5057804;28;19920;-54
2023/06/23 14:13:21;;;;;;;;;;;25.40;76.30;;;;;;5057827;28;20007;-51
2023/06/23 14:15:47;;;;;;;;;;;25.30;73.90;;;;;;5057424;28;19928;-53